createdAt,value
2019-01-28T00:00:52.146Z,4.33
2019-01-28T00:03:22.367Z,4.30
2019-01-28T00:05:51.894Z,4.03
2019-01-28T00:08:21.418Z,3.50
2019-01-28T00:11:04.483Z,3.80
2019-01-28T00:13:33.835Z,4.10
2019-01-28T00:16:03.375Z,3.57
2019-01-28T00:18:32.788Z,4.13
2019-01-28T00:21:02.316Z,4.27
2019-01-28T00:23:31.722Z,4.10
2019-01-28T00:26:01.169Z,4.10
2019-01-28T00:28:30.589Z,4.30
2019-01-28T00:31:00.047Z,3.83
2019-01-28T00:33:29.534Z,3.53
2019-01-28T00:35:58.973Z,4.13
2019-01-28T00:38:28.475Z,4.20
2019-01-28T00:40:57.935Z,4.73
2019-01-28T00:43:27.350Z,4.20
2019-01-28T00:45:56.816Z,4.60
2019-01-28T00:48:26.226Z,4.23
2019-01-28T00:50:55.690Z,4.70
2019-01-28T00:53:25.278Z,4.60
2019-01-28T00:55:54.670Z,5.37
2019-01-28T00:58:24.091Z,4.67
2019-01-28T01:00:53.678Z,5.53
2019-01-28T01:03:23.350Z,5.10
2019-01-28T01:05:52.879Z,4.70
2019-01-28T01:08:22.287Z,5.90
2019-01-28T01:10:53.061Z,5.30
2019-01-28T01:13:22.450Z,5.70
2019-01-28T01:15:51.826Z,5.67
2019-01-28T01:18:21.751Z,6.07
2019-01-28T01:20:51.136Z,6.40
2019-01-28T01:23:20.525Z,5.60
2019-01-28T01:25:50.048Z,5.60
2019-01-28T01:28:21.120Z,5.93
2019-01-28T01:30:50.631Z,6.50
2019-01-28T01:33:20.102Z,6.30
2019-01-28T01:35:49.765Z,6.30
2019-01-28T01:38:19.249Z,6.30
2019-01-28T01:40:48.715Z,6.37
2019-01-28T01:43:18.065Z,6.40
2019-01-28T01:45:47.631Z,6.27
2019-01-28T01:48:16.980Z,6.40
2019-01-28T01:50:46.473Z,6.30
2019-01-28T01:53:15.860Z,6.07
2019-01-28T01:56:04.573Z,6.40
2019-01-28T01:58:34.263Z,6.10
2019-01-28T02:01:03.987Z,6.17
2019-01-28T02:03:33.491Z,6.33
2019-01-28T02:06:02.957Z,7.23
2019-01-28T02:08:32.395Z,7.00
2019-01-28T02:11:01.851Z,7.20
2019-01-28T02:13:31.306Z,7.27
2019-01-28T02:16:00.668Z,7.33
2019-01-28T02:18:30.308Z,7.97
2019-01-28T02:20:59.844Z,7.47
2019-01-28T02:23:29.302Z,7.90
2019-01-28T02:25:58.710Z,8.23
2019-01-28T02:28:28.371Z,7.83
2019-01-28T02:30:57.736Z,7.80
2019-01-28T02:33:27.195Z,8.23
2019-01-28T02:35:56.751Z,8.47
2019-01-28T02:38:26.133Z,8.97
2019-01-28T02:40:55.489Z,8.27
2019-01-28T02:43:24.951Z,8.47
2019-01-28T02:45:54.399Z,7.73
2019-01-28T02:48:23.784Z,8.30
2019-01-28T02:50:53.206Z,8.10
2019-01-28T02:53:22.813Z,8.17
2019-01-28T02:55:52.239Z,8.27
2019-01-28T02:58:23.219Z,8.60
2019-01-28T03:00:52.682Z,8.00
2019-01-28T03:03:22.139Z,7.80
2019-01-28T03:05:52.186Z,7.70
2019-01-28T03:08:21.821Z,7.47
2019-01-28T03:10:51.280Z,7.57
2019-01-28T03:13:20.817Z,7.90
2019-01-28T03:15:50.268Z,8.00
2019-01-28T03:18:20.764Z,7.90
2019-01-28T03:20:50.269Z,7.67
2019-01-28T03:23:21.186Z,8.00
2019-01-28T03:25:50.679Z,7.93
2019-01-28T03:28:20.130Z,8.30
2019-01-28T03:30:49.552Z,8.17
2019-01-28T03:33:19.110Z,8.13
2019-01-28T03:36:09.195Z,8.30
2019-01-28T03:38:38.733Z,7.67
2019-01-28T03:41:08.531Z,7.30
2019-01-28T03:43:38.049Z,7.60
2019-01-28T03:46:09.774Z,7.33
2019-01-28T03:48:40.402Z,6.93
2019-01-28T03:51:09.864Z,6.90
2019-01-28T03:53:39.704Z,7.00
2019-01-28T03:56:09.146Z,7.03
2019-01-28T03:58:38.853Z,6.90
2019-01-28T04:01:08.453Z,6.77
2019-01-28T04:03:37.903Z,6.90
2019-01-28T04:06:08.974Z,6.63
2019-01-28T04:08:38.316Z,6.87
2019-01-28T04:11:07.766Z,6.80
2019-01-28T04:13:37.182Z,7.57
2019-01-28T04:16:06.687Z,6.77
2019-01-28T04:18:36.066Z,7.23
2019-01-28T04:21:05.598Z,6.83
2019-01-28T04:23:35.413Z,11.10
2019-01-28T04:26:04.953Z,15.10
2019-01-28T04:28:34.343Z,7.93
2019-01-28T04:31:03.995Z,8.27
2019-01-28T04:33:33.374Z,9.17
2019-01-28T04:36:02.774Z,10.80
2019-01-28T04:38:32.369Z,8.23
2019-01-28T04:41:01.815Z,9.93
2019-01-28T04:43:31.443Z,10.13
2019-01-28T04:46:02.492Z,9.60
2019-01-28T04:48:31.911Z,10.27
2019-01-28T04:51:01.371Z,10.70
2019-01-28T04:53:30.727Z,11.40
2019-01-28T04:56:00.182Z,11.70
2019-01-28T04:58:29.534Z,11.17
2019-01-28T05:00:59.256Z,12.60
2019-01-28T05:03:28.722Z,11.70
2019-01-28T05:05:58.289Z,11.03
2019-01-28T05:08:28.174Z,12.13
2019-01-28T05:10:57.781Z,13.60
2019-01-28T05:13:28.803Z,14.27
2019-01-28T05:15:58.243Z,14.13
2019-01-28T05:18:27.717Z,13.87
2019-01-28T05:20:57.234Z,13.50
2019-01-28T05:23:26.640Z,14.73
2019-01-28T05:25:56.103Z,14.83
2019-01-28T05:28:25.534Z,14.87
2019-01-28T05:30:55.056Z,13.90
2019-01-28T05:33:24.662Z,15.07
2019-01-28T05:35:54.227Z,15.03
2019-01-28T05:38:23.775Z,15.30
2019-01-28T05:40:53.167Z,14.83
2019-01-28T05:43:22.523Z,14.10
2019-01-28T05:45:52.014Z,13.33
2019-01-28T05:48:21.533Z,15.17
2019-01-28T05:50:51.005Z,13.50
2019-01-28T05:53:20.503Z,14.03
2019-01-28T05:55:50.038Z,13.67
2019-01-28T05:58:19.394Z,13.13
2019-01-28T06:00:48.906Z,14.17
2019-01-28T06:03:18.273Z,14.43
2019-01-28T06:05:48.109Z,13.33
2019-01-28T06:08:17.515Z,14.97
2019-01-28T06:10:46.996Z,14.37
2019-01-28T06:13:16.531Z,13.70
2019-01-28T06:15:46.260Z,13.80
2019-01-28T06:18:15.682Z,13.33
2019-01-28T06:20:45.151Z,13.17
2019-01-28T06:23:14.643Z,12.97
2019-01-28T06:25:46.996Z,13.50
2019-01-28T06:28:16.346Z,12.93
2019-01-28T06:30:45.815Z,13.33
2019-01-28T06:33:15.172Z,13.40
2019-01-28T06:35:44.805Z,14.00
2019-01-28T06:38:14.409Z,13.60
2019-01-28T06:40:44.072Z,13.50
2019-01-28T06:43:13.648Z,13.20
2019-01-28T06:45:43.194Z,13.30
2019-01-28T06:48:12.649Z,13.03
2019-01-28T06:50:42.178Z,12.87
2019-01-28T06:53:11.703Z,14.03
2019-01-28T06:55:41.098Z,13.37
2019-01-28T06:58:10.737Z,12.77
2019-01-28T07:00:40.378Z,13.60
2019-01-28T07:03:09.823Z,13.40
2019-01-28T07:05:39.292Z,13.57
2019-01-28T07:08:09.085Z,12.73
2019-01-28T07:10:38.624Z,14.20
2019-01-28T07:13:08.047Z,13.43
2019-01-28T07:15:37.508Z,13.43
2019-01-28T07:18:07.045Z,12.90
2019-01-28T07:20:36.645Z,13.40
2019-01-28T07:23:06.253Z,13.43
2019-01-28T07:25:35.861Z,13.43
2019-01-28T07:28:05.606Z,13.80
2019-01-28T07:30:36.203Z,13.90
2019-01-28T07:33:05.966Z,13.27
2019-01-28T07:35:35.542Z,14.37
2019-01-28T07:38:05.434Z,14.57
2019-01-28T07:40:36.847Z,14.87
2019-01-28T07:43:06.478Z,13.63
2019-01-28T07:45:44.554Z,14.87
2019-01-28T07:48:08.524Z,15.13
2019-01-28T07:50:38.073Z,15.00
2019-01-28T07:53:07.571Z,15.10
2019-01-28T07:55:37.455Z,13.53
2019-01-28T07:58:07.158Z,14.37
2019-01-28T08:00:36.653Z,14.30
2019-01-28T08:03:06.707Z,14.37
2019-01-28T08:05:36.364Z,14.50
2019-01-28T08:08:05.933Z,14.53
2019-01-28T08:10:35.427Z,15.53
2019-01-28T08:13:05.467Z,14.00
2019-01-28T08:15:35.047Z,14.03
2019-01-28T08:18:10.619Z,14.03
2019-01-28T08:20:36.169Z,13.53
2019-01-28T08:23:05.693Z,13.90
2019-01-28T08:25:35.533Z,13.70
2019-01-28T08:28:05.709Z,13.40
2019-01-28T08:30:37.545Z,11.23
2019-01-28T08:33:07.095Z,11.43
2019-01-28T08:35:36.660Z,10.63
2019-01-28T08:38:06.323Z,11.00
2019-01-28T08:40:36.020Z,10.60
2019-01-28T08:43:06.207Z,10.73
2019-01-28T08:45:35.775Z,10.27
2019-01-28T08:48:05.836Z,10.53
2019-01-28T08:50:35.495Z,9.70
2019-01-28T08:53:05.015Z,8.17
2019-01-28T08:55:34.429Z,7.70
2019-01-28T08:58:04.056Z,7.90
2019-01-28T09:00:40.482Z,7.23
2019-01-28T09:03:10.088Z,7.07
2019-01-28T09:05:39.871Z,6.23
2019-01-28T09:08:09.812Z,5.57
2019-01-28T09:10:39.620Z,5.53
2019-01-28T09:13:11.000Z,4.80
2019-01-28T09:15:40.447Z,4.53
2019-01-28T09:18:26.521Z,3.23
2019-01-28T09:20:54.666Z,3.57
2019-01-28T09:23:24.110Z,2.00
2019-01-28T09:25:53.485Z,1.40
2019-01-28T09:28:23.042Z,0.90
2019-01-28T09:30:52.670Z,6.23
2019-01-28T09:33:22.423Z,20.87
2019-01-28T09:35:52.294Z,1.60
2019-01-28T09:38:21.870Z,1.40
2019-01-28T09:40:51.381Z,1.33
2019-01-28T09:43:20.911Z,17.53
2019-01-28T09:45:51.135Z,102.03
2019-01-28T09:48:20.722Z,6.33
2019-01-28T09:50:50.250Z,1.10
2019-01-28T09:53:19.599Z,1.40
2019-01-28T09:55:49.463Z,1.30
2019-01-28T09:58:18.960Z,1.63
2019-01-28T10:00:49.230Z,1.27
2019-01-28T10:03:18.713Z,1.70
2019-01-28T10:05:48.285Z,1.80
2019-01-28T10:08:17.953Z,3.43
2019-01-28T10:10:47.548Z,1.90
2019-01-28T10:13:17.198Z,2.17
2019-01-28T10:15:47.011Z,2.13
2019-01-28T10:18:16.741Z,2.07
2019-01-28T10:20:47.282Z,2.63
2019-01-28T10:23:16.928Z,1.90
2019-01-28T10:25:46.728Z,2.40
2019-01-28T10:28:16.494Z,2.53
2019-01-28T10:30:47.133Z,2.90
2019-01-28T10:33:16.615Z,5.20
2019-01-28T10:35:46.314Z,37.30
2019-01-28T10:38:16.121Z,2.97
2019-01-28T10:40:46.606Z,2.43
2019-01-28T10:43:16.074Z,2.33
2019-01-28T10:45:45.471Z,2.67
2019-01-28T10:48:14.982Z,4.30
2019-01-28T10:50:57.522Z,45.33
2019-01-28T10:53:28.615Z,29.13
2019-01-28T10:55:59.923Z,3.13
2019-01-28T10:58:29.608Z,3.13
2019-01-28T11:00:59.135Z,2.57
2019-01-28T11:03:30.131Z,4.27
2019-01-28T11:05:59.535Z,78.67
2019-01-28T11:08:30.592Z,3.17
2019-01-28T11:11:00.164Z,2.80
2019-01-28T11:13:29.604Z,2.17
2019-01-28T11:15:59.111Z,3.17
2019-01-28T11:18:28.934Z,2.63
2019-01-28T11:20:58.816Z,3.57
2019-01-28T11:23:28.495Z,2.87
2019-01-28T11:25:59.689Z,3.07
2019-01-28T11:28:29.287Z,2.57
2019-01-28T11:30:59.536Z,2.77
2019-01-28T11:33:29.151Z,2.57
2019-01-28T11:36:05.140Z,2.90
2019-01-28T11:38:29.936Z,2.90
2019-01-28T11:41:19.363Z,2.77
2019-01-28T11:43:49.085Z,2.60
2019-01-28T11:46:18.662Z,3.20
2019-01-28T11:49:05.901Z,2.53
2019-01-28T11:51:32.526Z,2.57
2019-01-28T11:54:02.072Z,2.00
2019-01-28T11:56:31.524Z,2.10
2019-01-28T11:59:00.995Z,2.00
2019-01-28T12:01:30.460Z,1.80
2019-01-28T12:04:00.081Z,2.30
2019-01-28T12:06:29.932Z,2.50
2019-01-28T12:08:59.543Z,2.37
2019-01-28T12:11:29.723Z,9.97
2019-01-28T12:13:59.191Z,187.83
2019-01-28T12:16:28.676Z,349.13
2019-01-28T12:18:59.078Z,999.90
2019-01-28T12:21:28.633Z,536.57
2019-01-28T12:23:58.102Z,3.00
2019-01-28T12:26:27.870Z,2.47
2019-01-28T12:28:57.383Z,770.70
2019-01-28T12:31:26.919Z,534.40
2019-01-28T12:33:56.358Z,999.90
2019-01-28T12:36:27.312Z,999.90
2019-01-28T12:38:56.806Z,8.23
2019-01-28T12:41:26.202Z,410.23
2019-01-28T12:43:58.751Z,2.77
2019-01-28T12:46:29.703Z,2.90
2019-01-28T12:48:59.186Z,2.87
2019-01-28T12:51:28.653Z,8.27
2019-01-28T12:53:58.149Z,86.43
2019-01-28T12:56:27.675Z,73.13
2019-01-28T12:58:57.732Z,15.77
2019-01-28T13:01:27.192Z,26.07
2019-01-28T13:04:09.062Z,271.80
2019-01-28T13:06:38.618Z,161.60
2019-01-28T13:09:08.448Z,53.87
2019-01-28T13:11:39.544Z,35.27
2019-01-28T13:14:09.018Z,806.90
2019-01-28T13:16:40.016Z,999.90
2019-01-28T13:19:09.516Z,999.90
2019-01-28T13:21:40.757Z,999.90
2019-01-28T13:24:10.320Z,999.90
2019-01-28T13:26:39.799Z,999.90
2019-01-28T13:29:09.259Z,999.90
2019-01-28T13:31:39.055Z,999.90
2019-01-28T13:34:08.780Z,999.90
2019-01-28T13:36:38.495Z,999.90
2019-01-28T13:39:08.136Z,999.90
2019-01-28T13:41:37.610Z,999.90
2019-01-28T13:44:07.801Z,999.90
2019-01-28T13:46:37.266Z,999.90
2019-01-28T13:49:21.639Z,999.90
2019-01-28T13:51:51.339Z,141.47
2019-01-28T13:54:33.708Z,221.63
2019-01-28T13:57:03.184Z,2.20
2019-01-28T13:59:33.195Z,27.73
2019-01-28T14:02:02.699Z,805.53
2019-01-28T14:04:32.160Z,41.93
2019-01-28T14:07:01.658Z,169.17
2019-01-28T14:09:32.071Z,331.30
2019-01-28T14:12:01.646Z,822.10
2019-01-28T14:14:31.131Z,100.00
2019-01-28T14:17:00.644Z,4.70
2019-01-28T14:19:30.306Z,275.33
2019-01-28T14:21:59.663Z,237.90
2019-01-28T14:24:29.155Z,615.50
2019-01-28T14:26:58.579Z,837.47
2019-01-28T14:29:28.159Z,999.90
2019-01-28T14:31:57.590Z,999.90
2019-01-28T14:34:28.528Z,999.90
2019-01-28T14:36:58.897Z,999.90
2019-01-28T14:39:28.944Z,721.73
2019-01-28T14:41:58.479Z,100.97
2019-01-28T14:44:27.977Z,140.30
2019-01-28T14:46:57.355Z,999.90
2019-01-28T14:49:32.246Z,999.90
2019-01-28T14:51:57.978Z,3.33
2019-01-28T14:54:27.359Z,3.23
2019-01-28T14:56:57.277Z,3.20
2019-01-28T14:59:26.873Z,3.27
2019-01-28T15:01:56.331Z,2.97
2019-01-28T15:04:27.303Z,3.33
2019-01-28T15:06:56.712Z,2.60
2019-01-28T15:09:26.384Z,2.90
2019-01-28T15:11:55.843Z,2.30
2019-01-28T15:14:25.461Z,2.60
2019-01-28T15:16:55.180Z,2.90
2019-01-28T15:19:24.715Z,4.50
2019-01-28T15:21:55.782Z,13.40
2019-01-28T15:24:25.225Z,2.50
2019-01-28T15:26:54.663Z,6.47
2019-01-28T15:29:24.251Z,997.93
2019-01-28T15:31:53.724Z,999.90
2019-01-28T15:34:23.170Z,267.83
2019-01-28T15:36:53.244Z,402.00
2019-01-28T15:39:22.799Z,666.57
2019-01-28T15:41:52.202Z,907.27
2019-01-28T15:44:21.660Z,47.73
2019-01-28T15:46:51.299Z,2.63
2019-01-28T15:49:20.773Z,2.73
2019-01-28T15:51:50.344Z,2.57
2019-01-28T15:54:19.794Z,2.27
2019-01-28T15:56:49.386Z,2.73
2019-01-28T15:59:18.779Z,3.07
2019-01-28T16:01:48.449Z,7.60
2019-01-28T16:04:19.517Z,530.97
2019-01-28T16:06:49.019Z,413.73
2019-01-28T16:09:18.571Z,18.23
2019-01-28T16:11:47.947Z,53.17
2019-01-28T16:14:17.936Z,2.77
2019-01-28T16:16:47.498Z,3.60
2019-01-28T16:19:17.067Z,2.50
2019-01-28T16:21:46.498Z,30.43
2019-01-28T16:24:15.986Z,8.67
2019-01-28T16:26:45.347Z,5.47
2019-01-28T16:29:16.283Z,3.53
2019-01-28T16:31:45.783Z,2.67
2019-01-28T16:34:27.815Z,3.30
2019-01-28T16:36:57.572Z,3.13
2019-01-28T16:39:27.039Z,2.83
2019-01-28T16:41:56.636Z,3.43
2019-01-28T16:44:26.162Z,3.60
2019-01-28T16:46:55.540Z,3.03
2019-01-28T16:49:25.189Z,2.90
2019-01-28T16:51:54.709Z,2.70
2019-01-28T16:54:24.174Z,3.03
2019-01-28T16:56:53.693Z,2.60
2019-01-28T16:59:23.122Z,3.07
2019-01-28T17:01:52.587Z,2.93
2019-01-28T17:04:22.118Z,2.90
2019-01-28T17:06:51.740Z,2.93
2019-01-28T17:09:21.610Z,3.23
2019-01-28T17:11:51.217Z,2.73
2019-01-28T17:15:18.541Z,2.83
2019-01-28T17:17:48.140Z,3.63
2019-01-28T17:20:20.615Z,3.20
2019-01-28T17:22:50.184Z,2.97
2019-01-28T17:25:23.468Z,3.60
2019-01-28T17:27:52.986Z,3.43
2019-01-28T17:30:25.666Z,2.60
2019-01-28T17:32:55.216Z,2.20
2019-01-28T17:35:25.023Z,1.93
2019-01-28T17:37:54.557Z,2.53
2019-01-28T17:40:26.624Z,2.17
2019-01-28T17:42:56.191Z,1.97
2019-01-28T17:45:27.000Z,2.20
2019-01-28T17:47:56.884Z,2.20
2019-01-28T17:50:27.464Z,2.07
2019-01-28T17:52:57.319Z,2.10
2019-01-28T17:55:26.771Z,2.37
2019-01-28T17:57:57.991Z,2.57
2019-01-28T18:00:30.046Z,2.53
2019-01-28T18:02:59.600Z,2.70
2019-01-28T18:05:29.072Z,2.17
2019-01-28T18:07:58.557Z,2.07
2019-01-28T18:10:28.147Z,2.17
2019-01-28T18:12:57.563Z,1.90
2019-01-28T18:15:28.066Z,2.00
2019-01-28T18:17:57.675Z,1.90
2019-01-28T18:20:27.127Z,2.07
2019-01-28T18:22:56.626Z,2.10
2019-01-28T18:25:31.859Z,2.23
2019-01-28T18:28:01.348Z,2.10
2019-01-28T18:30:37.233Z,2.07
2019-01-28T18:33:06.719Z,2.50
2019-01-28T18:35:36.313Z,2.20
2019-01-28T18:38:07.184Z,1.83
2019-01-28T18:40:37.745Z,2.80
2019-01-28T18:43:07.409Z,2.37
2019-01-28T18:45:37.034Z,2.77
2019-01-28T18:48:07.487Z,2.50
2019-01-28T18:50:37.176Z,2.33
2019-01-28T18:53:06.751Z,2.53
2019-01-28T18:55:36.547Z,2.37
2019-01-28T18:58:06.216Z,2.80
2019-01-28T19:00:35.884Z,2.10
2019-01-28T19:03:06.034Z,2.27
2019-01-28T19:05:43.016Z,1.97
2019-01-28T19:08:30.365Z,2.17
2019-01-28T19:11:17.752Z,1.87
2019-01-28T19:13:48.832Z,2.00
2019-01-28T19:16:22.523Z,2.33
2019-01-28T19:19:11.550Z,1.93
2019-01-28T19:21:42.702Z,1.90
2019-01-28T19:24:12.305Z,1.77
2019-01-28T19:26:42.579Z,2.00
2019-01-28T19:29:12.504Z,1.90
2019-01-28T19:31:42.442Z,2.40
2019-01-28T19:34:11.924Z,2.00
2019-01-28T19:36:41.466Z,2.20
2019-01-28T19:39:11.060Z,2.17
2019-01-28T19:41:40.608Z,2.70
2019-01-28T19:44:10.211Z,2.50
2019-01-28T19:46:39.668Z,2.30
2019-01-28T19:49:09.302Z,2.07
2019-01-28T19:51:38.873Z,2.40
2019-01-28T19:54:08.512Z,2.13
2019-01-28T19:56:37.984Z,2.37
2019-01-28T19:59:08.005Z,2.17
2019-01-28T20:01:37.494Z,2.13
2019-01-28T20:04:07.151Z,2.30
2019-01-28T20:06:36.669Z,2.23
2019-01-28T20:09:08.179Z,11.03
2019-01-28T20:11:39.321Z,3.20
2019-01-28T20:14:08.811Z,3.40
2019-01-28T20:16:39.743Z,3.10
2019-01-28T20:19:09.538Z,3.20
2019-01-28T20:21:39.193Z,2.40
2019-01-28T20:24:08.814Z,2.93
2019-01-28T20:26:38.486Z,3.37
2019-01-28T20:29:08.096Z,3.80
2019-01-28T20:31:38.444Z,4.63
2019-01-28T20:34:07.940Z,2.53
2019-01-28T20:36:37.405Z,2.40
2019-01-28T20:39:27.744Z,2.20
2019-01-28T20:41:57.287Z,2.43
2019-01-28T20:44:26.646Z,2.40
2019-01-28T20:46:56.209Z,2.43
2019-01-28T20:49:25.620Z,2.67
2019-01-28T20:51:55.275Z,3.20
2019-01-28T20:54:24.738Z,3.10
2019-01-28T20:56:54.237Z,2.37
2019-01-28T20:59:36.842Z,2.20
2019-01-28T21:02:06.327Z,1.90
2019-01-28T21:04:35.958Z,1.83
2019-01-28T21:07:05.751Z,2.50
2019-01-28T21:09:36.753Z,1.90
2019-01-28T21:12:06.447Z,1.80
2019-01-28T21:14:35.950Z,1.53
2019-01-28T21:17:05.643Z,1.70
2019-01-28T21:19:35.865Z,1.60
2019-01-28T21:22:05.345Z,1.50
2019-01-28T21:24:34.875Z,1.70
2019-01-28T21:27:04.577Z,1.70
2019-01-28T21:29:46.708Z,1.83
2019-01-28T21:32:16.253Z,1.70
2019-01-28T21:34:45.970Z,1.50
2019-01-28T21:37:17.147Z,1.40
2019-01-28T21:39:46.538Z,1.47
2019-01-28T21:42:16.129Z,1.80
2019-01-28T21:44:45.717Z,1.60
2019-01-28T21:47:15.211Z,1.40
2019-01-28T21:49:44.687Z,1.80
2019-01-28T21:52:14.221Z,1.50
2019-01-28T21:54:43.749Z,2.13
2019-01-28T21:57:13.245Z,2.00
2019-01-28T21:59:42.653Z,1.40
2019-01-28T22:02:12.390Z,1.43
2019-01-28T22:04:41.841Z,2.20
2019-01-28T22:07:11.338Z,1.30
2019-01-28T22:09:42.293Z,1.83
2019-01-28T22:12:11.812Z,1.23
2019-01-28T22:14:41.208Z,1.20
2019-01-28T22:17:10.628Z,1.77
2019-01-28T22:19:40.071Z,1.70
2019-01-28T22:22:09.499Z,2.07
2019-01-28T22:24:39.932Z,1.93
2019-01-28T22:27:09.366Z,2.90
2019-01-28T22:29:40.398Z,2.10
2019-01-28T22:32:09.924Z,1.60
2019-01-28T22:34:47.514Z,2.20
2019-01-28T22:37:10.449Z,2.93
2019-01-28T22:39:40.072Z,2.10
2019-01-28T22:42:09.564Z,2.43
2019-01-28T22:44:38.959Z,2.10
2019-01-28T22:47:08.476Z,2.53
2019-01-28T22:49:38.160Z,1.63
2019-01-28T22:52:08.249Z,1.67
2019-01-28T22:54:37.779Z,1.43
2019-01-28T22:57:07.228Z,2.00
2019-01-28T22:59:36.873Z,1.87
2019-01-28T23:02:06.530Z,1.13
2019-01-28T23:04:36.350Z,1.30
2019-01-28T23:07:05.867Z,1.20
2019-01-28T23:09:35.642Z,1.00
2019-01-28T23:12:05.637Z,1.50
2019-01-28T23:14:36.578Z,1.23
2019-01-28T23:17:25.275Z,1.20
2019-01-28T23:19:54.676Z,1.20
2019-01-28T23:22:24.165Z,1.33
2019-01-28T23:24:55.074Z,1.80
2019-01-28T23:27:24.575Z,1.57
2019-01-28T23:29:54.103Z,1.40
2019-01-28T23:32:23.531Z,2.40
2019-01-28T23:34:52.980Z,1.93
2019-01-28T23:37:22.474Z,1.83
2019-01-28T23:39:51.988Z,1.80
2019-01-28T23:42:21.651Z,1.80
2019-01-28T23:44:51.185Z,1.70
2019-01-28T23:47:20.888Z,1.83
2019-01-28T23:49:50.460Z,1.50
2019-01-28T23:52:24.687Z,1.83
2019-01-28T23:54:51.224Z,2.00
2019-01-28T23:57:20.616Z,1.17
2019-01-28T23:59:50.227Z,1.20
